Time;durP1;ratioP1;P1;durP2;ratioP2;P2;SDS_P1;SDS_P2;PMS_P1;PMS_P2;Temp;Humidity;BMP_temperature;BMP_pressure;BME280_temperature;BME280_humidity;BME280_pressure;Samples;Min_cycle;Max_cycle;Signal;HPM_P1;HPM_P2
2022/12/05 00:02:10;;;;;;;;;56.67;46.33;;;;;6.28;94.38;99187.22;5015699;28;46031;-76
2022/12/05 00:04:35;;;;;;;;;69.33;52.33;;;;;6.31;94.89;99191.53;5024622;28;45388;-76
2022/12/05 00:07:00;;;;;;;;;62.67;44.00;;;;;6.34;94.52;99194.09;5014354;28;45399;-76
2022/12/05 00:09:26;;;;;;;;;67.67;51.00;;;;;6.36;94.46;99191.44;5011495;28;45497;-76
2022/12/05 00:11:51;;;;;;;;;65.33;51.67;;;;;6.37;94.23;99193.19;5014865;28;45402;-76
2022/12/05 00:14:17;;;;;;;;;65.00;50.33;;;;;6.38;94.00;99194.88;5015718;28;45383;-76
2022/12/05 00:16:43;;;;;;;;;63.00;51.00;;;;;6.40;94.24;99201.81;5015628;28;46208;-76
2022/12/05 00:19:12;;;;;;;;;70.67;56.33;;;;;6.42;94.60;99205.25;5015353;28;45508;-76
2022/12/05 00:21:38;;;;;;;;;75.33;56.00;;;;;6.43;94.67;99199.13;5014563;28;45419;-76
2022/12/05 00:24:06;;;;;;;;;71.00;52.67;;;;;6.44;94.19;99195.59;5030453;28;46043;-76
2022/12/05 00:26:31;;;;;;;;;71.00;53.33;;;;;6.45;94.13;99197.34;5014622;28;45452;-76
2022/12/05 00:28:57;;;;;;;;;66.33;50.33;;;;;6.46;94.38;99198.19;5014526;28;45503;-76
2022/12/05 00:31:25;;;;;;;;;69.67;49.67;;;;;6.46;94.02;99201.69;5015494;28;45329;-76
2022/12/05 00:33:51;;;;;;;;;67.67;51.67;;;;;6.47;94.17;99195.56;5015236;28;45489;-76
2022/12/05 00:36:32;;;;;;;;;67.00;48.67;;;;;6.47;94.07;99206.03;5014653;28;45539;-76
2022/12/05 00:39:00;;;;;;;;;66.33;52.00;;;;;6.46;94.26;99206.91;5025875;28;46330;-76
2022/12/05 00:41:27;;;;;;;;;64.67;50.67;;;;;6.48;94.41;99210.38;5014350;28;45369;-76
2022/12/05 00:43:54;;;;;;;;;66.33;49.67;;;;;6.49;94.20;99204.22;5014622;28;45445;-76
2022/12/05 00:46:22;;;;;;;;;69.67;51.67;;;;;6.48;93.85;99204.25;5014078;28;45475;-76
2022/12/05 00:48:48;;;;;;;;;62.33;50.67;;;;;6.47;93.97;99211.25;5014049;28;45475;-76
2022/12/05 00:51:15;;;;;;;;;65.33;52.00;;;;;6.49;94.00;99217.31;5013494;28;45576;-76
2022/12/05 00:53:42;;;;;;;;;68.00;53.00;;;;;6.52;94.24;99208.53;5013123;28;45405;-76
2022/12/05 00:56:12;;;;;;;;;60.67;47.00;;;;;6.52;93.34;99217.25;5013456;28;45469;-76
2022/12/05 00:58:38;;;;;;;;;61.67;48.33;;;;;6.50;93.30;99212.94;5014276;28;45417;-76
2022/12/05 01:01:14;;;;;;;;;65.33;47.00;;;;;6.50;93.43;99211.19;5023352;28;45391;-76
2022/12/05 01:03:41;;;;;;;;;65.67;49.00;;;;;6.49;92.92;99221.72;5013642;28;45472;-76
2022/12/05 01:06:09;;;;;;;;;67.00;48.67;;;;;6.48;93.43;99223.47;5032454;28;45875;-77
2022/12/05 01:08:35;;;;;;;;;67.00;51.33;;;;;6.49;93.36;99217.31;5025936;28;45730;-76
2022/12/05 01:11:01;;;;;;;;;66.67;51.00;;;;;6.51;93.50;99222.53;5012877;28;45509;-76
2022/12/05 01:13:28;;;;;;;;;70.00;52.00;;;;;6.51;93.29;99217.31;5013604;28;45441;-76
2022/12/05 01:15:53;;;;;;;;;73.00;55.33;;;;;6.51;93.25;99217.31;5014631;28;45448;-76
2022/12/05 01:18:20;;;;;;;;;70.00;52.33;;;;;6.52;93.36;99217.25;5014260;28;45449;-76
2022/12/05 01:20:46;;;;;;;;;66.33;50.67;;;;;6.52;93.31;99222.50;5013289;28;45454;-76
2022/12/05 01:23:12;;;;;;;;;64.00;49.67;;;;;6.51;93.09;99222.53;5013978;28;45615;-76
2022/12/05 01:25:42;;;;;;;;;67.33;50.67;;;;;6.48;93.06;99225.22;5013381;28;45671;-76
2022/12/05 01:28:08;;;;;;;;;63.67;52.33;;;;;6.44;93.27;99228.78;5013975;28;45310;-76
2022/12/05 01:30:38;;;;;;;;;59.00;48.00;;;;;6.41;93.36;99229.72;5014420;28;45337;-76
2022/12/05 01:33:04;;;;;;;;;56.00;43.00;;;;;6.39;93.04;99238.50;5013742;28;45584;-76
2022/12/05 01:35:35;;;;;;;;;60.67;43.33;;;;;6.38;92.97;99234.16;5014292;28;45415;-76
2022/12/05 01:38:01;;;;;;;;;64.33;46.67;;;;;6.35;93.05;99234.25;5029297;28;45894;-76
2022/12/05 01:40:26;;;;;;;;;64.00;48.00;;;;;6.35;93.69;99235.09;5012423;28;45359;-76
2022/12/05 01:42:52;;;;;;;;;59.00;44.00;;;;;6.36;93.31;99238.59;5014243;28;45469;-76
2022/12/05 01:45:42;;;;;;;;;67.00;45.00;;;;;6.37;93.20;99233.28;5014164;28;46179;-76
2022/12/05 01:48:14;;;;;;;;;54.67;42.33;;;;;6.37;92.98;99233.28;5029361;28;45960;-76
2022/12/05 01:50:40;;;;;;;;;54.33;45.00;;;;;6.37;93.21;99241.13;5029217;28;45549;-76
2022/12/05 01:53:05;;;;;;;;;57.33;44.00;;;;;6.38;92.96;99240.25;5013789;28;45554;-76
2022/12/05 01:55:34;;;;;;;;;49.67;41.67;;;;;6.38;92.63;99244.63;5013444;28;46233;-76
2022/12/05 01:58:02;;;;;;;;;56.00;40.00;;;;;6.39;93.17;99241.97;5008118;28;45365;-76
2022/12/05 02:00:28;;;;;;;;;68.00;49.67;;;;;6.41;92.92;99241.94;5013774;28;45512;-76
2022/12/05 02:02:57;;;;;;;;;54.00;39.33;;;;;6.42;92.94;99239.28;5012719;28;45389;-76
2022/12/05 02:05:27;;;;;;;;;59.33;45.67;;;;;6.42;92.98;99239.28;5012241;28;46541;-76
2022/12/05 02:07:53;;;;;;;;;51.00;39.00;;;;;6.42;92.70;99252.38;5025713;28;45842;-76
2022/12/05 02:10:19;;;;;;;;;51.67;42.00;;;;;6.44;92.65;99254.97;5038654;28;45441;-76
2022/12/05 02:12:45;;;;;;;;;54.00;44.00;;;;;6.45;92.76;99257.56;5013914;28;45650;-76
2022/12/05 02:15:19;;;;;;;;;49.67;39.33;;;;;6.44;92.37;99262.84;5013632;28;45542;-76
2022/12/05 02:18:19;;;;;;;;;58.67;42.00;;;;;6.43;92.37;99259.34;5013777;28;45388;-76
2022/12/05 02:20:55;;;;;;;;;47.67;39.33;;;;;6.41;92.47;99252.41;5013804;28;45358;-76
2022/12/05 02:23:43;;;;;;;;;51.00;38.33;;;;;6.40;92.36;99250.69;5013928;28;45339;-76
2022/12/05 02:26:29;;;;;;;;;48.67;39.67;;;;;6.37;92.10;99251.63;5011395;28;47452;-76
2022/12/05 02:29:42;;;;;;;;;51.67;41.00;;;;;6.29;91.89;99256.16;5005853;28;45553;-76
2022/12/05 02:32:17;;;;;;;;;55.67;39.33;;;;;6.26;92.27;99249.22;5009776;28;45455;-76
2022/12/05 02:35:02;;;;;;;;;49.00;38.33;;;;;6.25;92.56;99251.88;5013846;28;45472;-76
2022/12/05 02:37:47;;;;;;;;;46.33;38.00;;;;;6.25;92.31;99252.75;5013108;28;45495;-76
2022/12/05 02:40:25;;;;;;;;;51.33;40.00;;;;;6.23;92.29;99258.91;5012531;28;45468;-76
2022/12/05 02:43:06;;;;;;;;;52.33;39.33;;;;;6.22;92.38;99263.25;5013562;28;45488;-76
2022/12/05 02:45:34;;;;;;;;;54.33;38.33;;;;;6.21;92.50;99263.28;5013643;28;45464;-76
2022/12/05 02:48:01;;;;;;;;;51.00;36.33;;;;;6.18;92.61;99263.38;5013410;28;46046;-76
2022/12/05 02:50:37;;;;;;;;;45.33;36.33;;;;;6.15;92.40;99263.44;5013825;28;45731;-76
2022/12/05 02:53:10;;;;;;;;;52.67;38.00;;;;;6.12;92.66;99266.13;5016934;28;45493;-76
2022/12/05 02:55:39;;;;;;;;;56.33;40.33;;;;;6.11;92.99;99273.09;5016237;28;45428;-76
2022/12/05 02:58:10;;;;;;;;;53.00;41.33;;;;;6.10;92.99;99278.38;5017053;28;45410;-76
2022/12/05 03:00:39;;;;;;;;;58.67;43.00;;;;;6.10;92.92;99275.75;5016473;28;45509;-77
2022/12/05 03:03:12;;;;;;;;;47.67;38.33;;;;;6.11;92.89;99273.09;5016720;28;45424;-76
2022/12/05 03:06:15;;;;;;;;;47.00;35.00;;;;;6.10;92.69;99280.97;5016611;28;45348;-77
2022/12/05 03:08:49;;;;;;;;;46.00;36.00;;;;;6.10;92.83;99283.59;5016240;28;45533;-76
2022/12/05 03:11:15;;;;;;;;;54.00;42.00;;;;;6.08;92.78;99273.16;5016162;28;45428;-76
2022/12/05 03:13:46;;;;;;;;;57.67;45.00;;;;;6.07;92.73;99279.28;5016744;28;45669;-76
2022/12/05 03:16:19;;;;;;;;;41.67;33.67;;;;;6.08;92.62;99280.16;5016443;28;45274;-76
2022/12/05 03:18:50;;;;;;;;;52.00;39.00;;;;;6.07;92.73;99281.91;5000332;28;45551;-76
2022/12/05 03:21:21;;;;;;;;;50.00;39.33;;;;;6.06;92.49;99290.63;5015955;28;45413;-76
2022/12/05 03:23:53;;;;;;;;;48.67;39.33;;;;;6.05;92.57;99288.03;5047287;28;45332;-77
2022/12/05 03:26:21;;;;;;;;;52.33;37.67;;;;;6.04;92.49;99287.19;5015158;28;45669;-77
2022/12/05 03:29:00;;;;;;;;;40.33;31.33;;;;;6.05;92.30;99291.53;5016146;28;46597;-76
2022/12/05 03:31:38;;;;;;;;;37.33;27.67;;;;;6.01;91.86;99289.03;5016411;28;45350;-76
2022/12/05 03:34:07;;;;;;;;;45.00;39.33;;;;;5.99;91.87;99290.81;5016675;28;45373;-76
2022/12/05 03:36:42;;;;;;;;;44.00;31.67;;;;;5.97;91.47;99288.22;5016041;28;45510;-76
2022/12/05 03:39:20;;;;;;;;;25.00;19.67;;;;;5.97;91.74;99277.75;5014293;28;47083;-76
2022/12/05 03:42:00;;;;;;;;;43.00;36.67;;;;;6.00;91.70;99289.91;5016105;28;45424;-76
2022/12/05 03:44:44;;;;;;;;;38.00;32.33;;;;;5.99;91.68;99289.06;5016316;28;45357;-77
2022/12/05 03:47:16;;;;;;;;;37.33;31.00;;;;;5.99;92.01;99296.03;5031356;28;45633;-76
2022/12/05 03:49:50;;;;;;;;;37.00;30.67;;;;;6.00;91.59;99293.41;5015808;28;46103;-76
2022/12/05 03:52:54;;;;;;;;;31.67;27.00;;;;;6.02;91.21;99291.63;5015307;28;45480;-77
2022/12/05 03:55:24;;;;;;;;;32.00;23.33;;;;;6.01;91.23;99294.25;5006737;28;45619;-77
2022/12/05 03:57:56;;;;;;;;;31.67;24.67;;;;;6.01;91.01;99296.88;5015504;28;45482;-76
2022/12/05 04:00:23;;;;;;;;;39.00;31.00;;;;;6.00;90.88;99298.63;5014505;28;46151;-77
2022/12/05 04:03:03;;;;;;;;;29.67;27.67;;;;;6.00;90.47;99306.47;5013082;28;45418;-77
2022/12/05 04:05:52;;;;;;;;;25.67;19.67;;;;;5.99;90.30;99306.50;5030776;28;45313;-76
2022/12/05 04:08:20;;;;;;;;;28.67;26.00;;;;;5.98;90.50;99310.00;5015138;28;45352;-76
2022/12/05 04:10:50;;;;;;;;;29.00;24.00;;;;;5.98;90.70;99310.88;5014943;28;45543;-77
2022/12/05 04:13:37;;;;;;;;;24.33;20.00;;;;;5.97;90.11;99308.28;5015834;28;45415;-76
2022/12/05 04:19:02;;;;;;;;;24.33;20.67;;;;;5.92;89.64;99324.91;5013951;28;45413;-76
2022/12/05 04:21:39;;;;;;;;;20.67;15.33;;;;;5.94;89.69;99320.53;5015644;28;45527;-77
2022/12/05 04:27:20;;;;;;;;;27.67;21.33;;;;;5.91;89.33;99323.19;5015609;28;45413;-77
2022/12/05 04:30:02;;;;;;;;;22.33;19.00;;;;;5.91;89.75;99320.56;5008098;28;45345;-76
2022/12/05 04:32:51;;;;;;;;;27.67;22.00;;;;;5.89;89.34;99332.81;5015078;28;45654;-76
2022/12/05 04:35:28;;;;;;;;;22.33;19.33;;;;;5.89;89.53;99324.09;5013610;28;45494;-76
2022/12/05 04:38:00;;;;;;;;;23.33;18.00;;;;;5.84;89.39;99326.78;5014756;28;45421;-76
2022/12/05 04:40:52;;;;;;;;;24.67;19.67;;;;;5.81;89.29;99320.75;5014071;28;45527;-76
2022/12/05 04:43:20;;;;;;;;;28.00;24.33;;;;;5.78;89.47;99320.78;5014736;28;45392;-76
2022/12/05 04:45:47;;;;;;;;;28.67;23.67;;;;;5.78;89.93;99326.03;5015312;28;46500;-76
2022/12/05 04:48:16;;;;;;;;;27.00;23.00;;;;;5.79;89.70;99327.75;5030333;28;45404;-76
2022/12/05 04:50:45;;;;;;;;;25.33;23.67;;;;;5.79;89.72;99335.59;5015149;28;45500;-77
2022/12/05 04:53:13;;;;;;;;;25.00;23.33;;;;;5.81;90.00;99341.69;5009261;28;46498;-77
2022/12/05 04:55:45;;;;;;;;;25.67;21.67;;;;;5.82;89.48;99343.41;5013127;28;45389;-77
2022/12/05 04:58:18;;;;;;;;;25.67;22.33;;;;;5.80;89.39;99343.44;5014478;28;45397;-76
2022/12/05 05:00:53;;;;;;;;;25.67;22.67;;;;;5.77;89.47;99335.63;5030118;28;45397;-77
2022/12/05 05:03:30;;;;;;;;;30.67;25.00;;;;;5.76;89.59;99341.75;5014395;28;46231;-76
2022/12/05 05:05:56;;;;;;;;;28.67;21.67;;;;;5.78;89.69;99342.59;5014646;28;45445;-76
2022/12/05 05:08:26;;;;;;;;;27.33;22.33;;;;;5.77;89.83;99343.47;5014516;28;45440;-77
2022/12/05 05:10:59;;;;;;;;;25.00;22.00;;;;;5.79;89.39;99346.06;5013761;28;45374;-76
2022/12/05 05:13:25;;;;;;;;;26.00;21.33;;;;;5.79;89.33;99346.06;5014069;28;46820;-76
2022/12/05 05:15:50;;;;;;;;;25.33;20.67;;;;;5.79;89.39;99346.94;5014369;28;45354;-76
2022/12/05 05:18:16;;;;;;;;;17.33;15.33;;;;;5.80;89.28;99343.44;5014431;28;45579;-76
2022/12/05 05:20:41;;;;;;;;;14.67;14.00;;;;;5.79;88.85;99346.94;5014673;28;45430;-76
2022/12/05 05:23:06;;;;;;;;;18.00;16.67;;;;;5.78;88.56;99341.72;5014424;28;45414;-76
2022/12/05 05:25:32;;;;;;;;;17.33;16.67;;;;;5.76;88.48;99352.22;5045693;28;45415;-76
2022/12/05 05:27:57;;;;;;;;;18.00;17.00;;;;;5.75;88.59;99350.47;5013417;28;45790;-76
2022/12/05 05:30:24;;;;;;;;;21.67;17.67;;;;;5.75;88.86;99344.38;5014070;28;45490;-75
2022/12/05 05:32:49;;;;;;;;;21.67;16.00;;;;;5.75;88.55;99347.00;5013872;28;46305;-76
2022/12/05 05:35:15;;;;;;;;;20.33;17.67;;;;;5.75;88.59;99347.00;5012364;28;45499;-78
2022/12/05 05:37:41;;;;;;;;;18.67;15.00;;;;;5.74;88.24;99351.38;5014126;28;45576;-78
2022/12/05 05:40:09;;;;;;;;;15.33;14.33;;;;;5.74;88.01;99359.22;5013689;28;45436;-76
2022/12/05 05:42:35;;;;;;;;;15.00;13.67;;;;;5.72;88.16;99357.50;5014039;28;45469;-77
2022/12/05 05:45:00;;;;;;;;;16.33;16.00;;;;;5.73;87.85;99367.09;5013957;28;45380;-75
2022/12/05 05:47:26;;;;;;;;;13.00;12.33;;;;;5.71;87.92;99371.47;5013987;28;45453;-75
2022/12/05 05:49:51;;;;;;;;;14.00;12.00;;;;;5.70;87.86;99375.84;5014145;28;45456;-77
2022/12/05 05:52:16;;;;;;;;;12.33;12.33;;;;;5.69;87.42;99370.66;5013601;28;45459;-77
2022/12/05 05:54:42;;;;;;;;;12.67;11.33;;;;;5.67;87.51;99368.06;5013347;28;45293;-77
2022/12/05 05:57:07;;;;;;;;;9.00;8.33;;;;;5.65;87.19;99374.22;5014137;28;45341;-77
2022/12/05 05:59:33;;;;;;;;;14.33;10.33;;;;;5.61;87.08;99378.63;5013745;28;45468;-77
2022/12/05 06:01:58;;;;;;;;;12.33;11.67;;;;;5.59;87.47;99394.34;5028692;28;47122;-77
2022/12/05 06:04:24;;;;;;;;;12.67;11.67;;;;;5.58;87.06;99396.97;5012436;28;45391;-77
2022/12/05 06:06:49;;;;;;;;;9.33;8.00;;;;;5.54;87.01;99401.38;5012218;28;45459;-77
2022/12/05 06:09:14;;;;;;;;;10.33;8.00;;;;;5.52;86.48;99408.41;5012804;28;45440;-77
2022/12/05 06:11:40;;;;;;;;;9.33;8.33;;;;;5.48;86.65;99404.09;5013357;28;45734;-77
2022/12/05 06:14:05;;;;;;;;;14.33;9.67;;;;;5.45;86.72;99412.00;5013098;28;45486;-77
2022/12/05 06:16:31;;;;;;;;;12.33;8.67;;;;;5.46;87.12;99405.88;5013459;28;46007;-77
2022/12/05 06:18:57;;;;;;;;;8.67;7.67;;;;;5.45;86.59;99412.00;5013029;28;45539;-77
2022/12/05 06:21:23;;;;;;;;;9.00;9.00;;;;;5.43;86.61;99405.91;5012792;28;46698;-77
2022/12/05 06:23:49;;;;;;;;;4.67;4.00;;;;;5.42;86.77;99404.19;5012455;28;45384;-77
2022/12/05 06:26:17;;;;;;;;;7.00;7.00;;;;;5.41;86.25;99415.53;5014346;28;45385;-77
2022/12/05 06:28:43;;;;;;;;;8.00;7.67;;;;;5.40;86.52;99415.53;5023707;28;45461;-77
2022/12/05 06:31:11;;;;;;;;;7.00;4.00;;;;;5.41;86.59;99419.88;5016414;28;46205;-77
2022/12/05 06:33:37;;;;;;;;;6.00;3.33;;;;;5.39;86.39;99425.13;5015697;28;45389;-77
2022/12/05 06:36:10;;;;;;;;;9.00;9.00;;;;;5.41;86.70;99430.34;5016061;28;45352;-76
2022/12/05 06:38:35;;;;;;;;;9.33;9.33;;;;;5.42;86.36;99432.06;5030889;28;45590;-75
2022/12/05 06:41:05;;;;;;;;;7.67;7.33;;;;;5.40;86.14;99442.56;5014863;28;46020;-76
2022/12/05 06:43:30;;;;;;;;;9.00;7.00;;;;;5.32;85.99;99436.59;5015881;28;45491;-78
2022/12/05 06:45:56;;;;;;;;;7.33;7.33;;;;;5.28;86.03;99445.34;5015855;28;45497;-78
2022/12/05 06:48:22;;;;;;;;;8.33;7.00;;;;;5.23;86.23;99448.00;5015265;28;45347;-77
2022/12/05 06:50:51;;;;;;;;;8.00;6.67;;;;;5.23;86.62;99447.16;5014643;28;46593;-78
2022/12/05 06:53:18;;;;;;;;;12.00;9.00;;;;;5.22;86.79;99451.50;5011225;28;45416;-77
2022/12/05 06:55:53;;;;;;;;;14.33;13.00;;;;;5.26;86.91;99454.97;5015025;28;45422;-78
2022/12/05 06:58:19;;;;;;;;;12.33;8.00;;;;;5.29;86.52;99448.81;5013750;28;45373;-78
2022/12/05 07:03:28;;;;;;;;;10.00;7.67;;;;;5.33;86.78;99466.22;5008782;28;45635;-78
2022/12/05 07:05:53;;;;;;;;;12.00;8.67;;;;;5.35;86.43;99469.66;5013601;28;45706;-77
2022/12/05 07:08:19;;;;;;;;;14.00;12.00;;;;;5.33;86.49;99472.31;5014754;28;45360;-78
2022/12/05 07:10:50;;;;;;;;;12.67;11.00;;;;;5.35;86.51;99475.75;5014403;28;46139;-78
2022/12/05 07:13:15;;;;;;;;;12.33;11.00;;;;;5.37;86.66;99478.31;5007256;28;45434;-78
2022/12/05 07:15:40;;;;;;;;;9.00;9.00;;;;;5.40;86.83;99480.91;5015037;28;45609;-78
2022/12/05 07:18:06;;;;;;;;;18.67;13.00;;;;;5.42;86.42;99490.47;5012505;28;45490;-77
2022/12/05 07:20:31;;;;;;;;;18.67;15.00;;;;;5.41;86.38;99487.88;5015073;28;46610;-78
2022/12/05 07:22:57;;;;;;;;;18.33;18.00;;;;;5.41;86.34;99496.56;5015170;28;45444;-78
2022/12/05 07:25:23;;;;;;;;;20.00;18.00;;;;;5.40;86.45;99504.44;5015396;28;45401;-78
2022/12/05 07:27:49;;;;;;;;;20.33;18.33;;;;;5.42;86.78;99500.06;5013203;28;45470;-79
2022/12/05 07:30:14;;;;;;;;;21.00;17.00;;;;;5.46;86.59;99510.47;5030358;28;48507;-78
2022/12/05 07:32:40;;;;;;;;;15.33;11.33;;;;;5.49;86.64;99517.41;5014807;28;45360;-78
2022/12/05 07:35:05;;;;;;;;;28.00;23.67;;;;;5.51;86.88;99524.34;5014895;28;45402;-78
2022/12/05 07:37:31;;;;;;;;;20.00;18.67;;;;;5.54;86.47;99531.25;5011803;28;45497;-77
2022/12/05 07:39:56;;;;;;;;;21.00;19.33;;;;;5.54;86.92;99531.25;5014169;28;45452;-78
2022/12/05 07:42:21;;;;;;;;;22.33;19.33;;;;;5.55;86.90;99538.22;5008308;28;45358;-77
2022/12/05 07:44:47;;;;;;;;;32.67;27.33;;;;;5.58;87.05;99532.97;5042220;28;45373;-77
2022/12/05 07:47:12;;;;;;;;;20.33;19.67;;;;;5.61;87.07;99544.25;5014394;28;45381;-77
2022/12/05 07:49:38;;;;;;;;;24.33;21.33;;;;;5.64;87.22;99552.94;5014456;28;46321;-78
2022/12/05 07:52:03;;;;;;;;;23.00;19.00;;;;;5.69;86.35;99551.13;5015175;28;45462;-77
2022/12/05 07:54:28;;;;;;;;;15.33;14.00;;;;;5.69;85.47;99557.25;5014780;28;45367;-77
2022/12/05 07:56:54;;;;;;;;;15.33;14.00;;;;;5.67;85.59;99556.38;5014791;28;45552;-77
2022/12/05 07:59:19;;;;;;;;;17.67;15.33;;;;;5.64;84.93;99566.03;5016551;28;45407;-78
2022/12/05 08:01:45;;;;;;;;;15.33;13.67;;;;;5.58;84.78;99566.94;5015217;28;45444;-77
2022/12/05 08:04:11;;;;;;;;;14.33;12.00;;;;;5.57;85.31;99570.44;5012452;28;45461;-78
2022/12/05 08:06:36;;;;;;;;;16.00;13.33;;;;;5.57;85.22;99567.84;5015072;28;45631;-77
2022/12/05 08:09:02;;;;;;;;;21.33;18.33;;;;;5.56;85.18;99573.94;5006782;28;45418;-77
2022/12/05 08:11:33;;;;;;;;;19.67;19.00;;;;;5.56;85.36;99569.59;5007684;28;45466;-77
2022/12/05 08:13:59;;;;;;;;;12.33;11.33;;;;;5.59;85.47;99568.69;5043342;28;45449;-76
2022/12/05 08:16:27;;;;;;;;;45.50;35.50;;;;;5.61;85.35;99570.41;5013093;28;45397;-78
2022/12/05 08:19:01;;;;;;;;;16.33;14.33;;;;;5.67;85.62;99581.69;5014348;28;45461;-78
2022/12/05 08:21:26;;;;;;;;;18.67;18.67;;;;;5.70;85.18;99564.16;5011707;28;45499;-78
2022/12/05 08:23:52;;;;;;;;;21.67;16.00;;;;;5.72;85.23;99566.75;5029790;28;45465;-77
2022/12/05 08:26:26;;;;;;;;;26.67;23.67;;;;;5.77;85.46;99573.69;5010351;28;45469;-78
2022/12/05 08:28:54;;;;;;;;;28.00;22.33;;;;;5.82;85.36;99576.25;5014079;28;45519;-78
2022/12/05 08:31:25;;;;;;;;;32.33;29.67;;;;;5.85;85.36;99584.91;5013840;28;45400;-78
2022/12/05 08:33:51;;;;;;;;;38.33;32.67;;;;;5.88;85.60;99589.22;5014163;28;45551;-78
2022/12/05 08:36:18;;;;;;;;;39.00;34.33;;;;;5.87;85.51;99590.97;5014242;28;45417;-78
2022/12/05 08:38:46;;;;;;;;;38.67;35.67;;;;;5.89;85.27;99591.84;5014105;28;46756;-78
2022/12/05 08:41:14;;;;;;;;;30.67;26.67;;;;;5.90;85.55;99592.72;5010936;28;45436;-78
2022/12/05 08:43:40;;;;;;;;;28.33;26.00;;;;;5.94;85.33;99591.78;5014179;28;45380;-78
2022/12/05 08:46:06;;;;;;;;;36.33;31.33;;;;;5.98;85.14;99595.25;5029700;28;45478;-78
2022/12/05 08:48:32;;;;;;;;;34.33;30.00;;;;;6.03;85.21;99599.53;5013084;28;45531;-78
2022/12/05 08:50:59;;;;;;;;;33.00;30.00;;;;;6.05;85.21;99594.25;5013579;28;45431;-78
2022/12/05 08:53:25;;;;;;;;;35.00;30.33;;;;;6.08;84.83;99600.31;5014508;28;45358;-78
2022/12/05 08:55:50;;;;;;;;;27.33;26.00;;;;;6.09;84.45;99606.41;5011282;28;45527;-78
2022/12/05 08:58:16;;;;;;;;;26.00;22.33;;;;;6.09;84.83;99604.66;5008220;28;45405;-78
2022/12/05 09:00:42;;;;;;;;;28.33;24.67;;;;;6.13;84.74;99608.09;5027529;28;45442;-78
2022/12/05 09:03:10;;;;;;;;;39.33;28.00;;;;;6.16;84.82;99613.31;5012964;28;45418;-78
2022/12/05 09:05:38;;;;;;;;;31.00;27.00;;;;;6.18;84.55;99611.53;5013951;28;45413;-78
2022/12/05 09:08:04;;;;;;;;;30.33;26.00;;;;;6.21;84.35;99609.72;5045807;28;48024;-78
2022/12/05 09:10:29;;;;;;;;;32.33;24.67;;;;;6.25;84.36;99623.63;5013394;28;45358;-78
2022/12/05 09:12:55;;;;;;;;;26.00;23.00;;;;;6.28;83.84;99628.81;5004812;28;45362;-78
2022/12/05 09:15:20;;;;;;;;;25.00;22.67;;;;;6.35;83.80;99634.84;5013981;28;45350;-80
2022/12/05 09:17:45;;;;;;;;;22.00;21.00;;;;;6.41;84.06;99640.84;5013288;28;46261;-78
2022/12/05 09:20:12;;;;;;;;;23.00;20.33;;;;;6.49;83.54;99635.50;5013334;28;45433;-78
2022/12/05 09:22:39;;;;;;;;;24.67;24.67;;;;;6.55;83.33;99640.63;5014482;28;45309;-78
2022/12/05 09:25:05;;;;;;;;;14.33;14.33;;;;;6.59;82.29;99634.44;5014234;28;45377;-78
2022/12/05 09:27:30;;;;;;;;;19.00;18.33;;;;;6.62;82.69;99632.66;5007222;28;45995;-78
2022/12/05 09:29:55;;;;;;;;;22.00;20.33;;;;;6.67;82.60;99631.72;5011874;28;45347;-78
2022/12/05 09:32:21;;;;;;;;;27.33;19.33;;;;;6.68;82.66;99626.47;5014099;28;45385;-77
2022/12/05 09:34:46;;;;;;;;;16.67;13.33;;;;;6.71;82.18;99629.00;5013729;28;45385;-78
2022/12/05 09:37:12;;;;;;;;;22.33;16.00;;;;;6.75;81.63;99635.06;5013226;28;46330;-76
2022/12/05 09:39:37;;;;;;;;;25.67;21.00;;;;;6.81;82.04;99625.38;5012673;28;45394;-77
2022/12/05 09:42:19;;;;;;;;;18.67;14.00;;;;;6.90;81.68;99626.94;5012345;28;45560;-76
2022/12/05 09:45:08;;;;;;;;;32.33;27.67;;;;;6.97;81.63;99613.72;5013603;28;45412;-77
2022/12/05 09:47:44;;;;;;;;;45.67;36.00;;;;;7.07;81.50;99616.16;5028629;28;45689;-78
2022/12/05 09:50:16;;;;;;;;;37.33;34.00;;;;;7.12;81.48;99623.06;5005772;28;45375;-76
2022/12/05 09:53:02;;;;;;;;;33.00;31.00;;;;;7.18;80.83;99622.97;5009524;28;45454;-76
2022/12/05 09:55:36;;;;;;;;;27.67;25.00;;;;;7.21;80.82;99620.25;5012482;28;45521;-78
2022/12/05 09:58:04;;;;;;;;;30.67;27.00;;;;;7.25;80.72;99618.44;5013175;28;46053;-76
2022/12/05 10:00:32;;;;;;;;;33.67;27.00;;;;;7.31;81.14;99621.84;5012270;28;45351;-77
2022/12/05 10:03:03;;;;;;;;;38.33;30.00;;;;;7.32;80.68;99614.84;5012771;28;45363;-76
2022/12/05 10:05:46;;;;;;;;;35.00;31.00;;;;;7.29;80.55;99615.75;5013221;28;45546;-76
2022/12/05 10:08:23;;;;;;;;;37.33;32.33;;;;;7.26;80.47;99607.94;5011673;28;45514;-75
2022/12/05 10:11:09;;;;;;;;;42.67;31.33;;;;;7.24;80.62;99608.84;5011519;28;45638;-79
2022/12/05 10:13:37;;;;;;;;;40.00;35.00;;;;;7.28;81.03;99606.16;5011330;28;45415;-76
2022/12/05 10:16:09;;;;;;;;;46.00;35.00;;;;;7.34;81.07;99599.94;5028040;28;45692;-78
2022/12/05 10:18:58;;;;;;;;;45.00;37.33;;;;;7.42;80.53;99586.66;5012233;28;45408;-78
2022/12/05 10:21:41;;;;;;;;;44.67;37.33;;;;;7.50;80.42;99590.88;5012295;28;45354;-78
2022/12/05 10:24:36;;;;;;;;;42.33;37.33;;;;;7.58;79.94;99588.94;5012441;28;45364;-77
2022/12/05 10:27:06;;;;;;;;;40.67;33.33;;;;;7.62;79.76;99595.00;5008755;28;45649;-77
2022/12/05 10:29:31;;;;;;;;;36.33;29.67;;;;;7.66;79.35;99597.53;5011844;28;45436;-77
2022/12/05 10:32:07;;;;;;;;;35.00;34.33;;;;;7.66;79.19;99589.66;5027645;28;45431;-78
2022/12/05 10:34:39;;;;;;;;;39.67;32.33;;;;;7.66;79.51;99588.78;5012655;28;45468;-77
2022/12/05 10:37:08;;;;;;;;;38.33;35.00;;;;;7.65;79.48;99582.69;5012442;28;45456;-77
2022/12/05 10:39:33;;;;;;;;;29.33;24.67;;;;;7.67;79.16;99585.28;5012260;28;45508;-78
2022/12/05 10:41:59;;;;;;;;;38.00;34.33;;;;;7.69;79.00;99578.25;5012109;28;45412;-77
2022/12/05 10:44:25;;;;;;;;;34.67;30.33;;;;;7.68;78.81;99577.38;5044419;28;45436;-77
2022/12/05 10:46:50;;;;;;;;;35.00;31.33;;;;;7.62;78.29;99574.88;5013153;28;45290;-78
2022/12/05 10:49:18;;;;;;;;;37.33;35.00;;;;;7.49;78.03;99570.78;5010550;28;47135;-78
2022/12/05 10:51:43;;;;;;;;;36.33;30.67;;;;;7.36;77.88;99574.56;5011724;28;45434;-78
2022/12/05 10:54:23;;;;;;;;;41.33;35.00;;;;;7.27;79.17;99572.09;5011673;28;45400;-77
2022/12/05 10:56:51;;;;;;;;;38.67;31.33;;;;;7.25;79.38;99561.63;5000565;28;45468;-78
2022/12/05 10:59:19;;;;;;;;;29.67;28.33;;;;;7.21;78.92;99567.81;5010780;28;45515;-78
2022/12/05 11:01:48;;;;;;;;;35.50;32.00;;;;;7.15;79.02;99567.97;5011933;28;45468;-77
2022/12/05 11:04:25;;;;;;;;;44.50;35.50;;;;;7.08;79.32;99555.84;5012550;28;45393;-77
2022/12/05 11:06:53;;;;;;;;;35.33;34.67;;;;;7.08;79.06;99565.47;5027227;28;45517;-77
2022/12/05 11:09:22;;;;;;;;;27.00;26.00;;;;;7.06;78.99;99556.75;5011814;28;46570;-77
2022/12/05 11:12:24;;;;;;;;;40.00;33.67;;;;;7.06;79.53;99555.00;5003890;28;45489;-77
2022/12/05 11:14:56;;;;;;;;;41.33;34.33;;;;;7.08;79.75;99545.34;5038820;28;45489;-78
2022/12/05 11:17:26;;;;;;;;;33.00;32.00;;;;;7.10;79.88;99540.09;5047623;28;45513;-77
2022/12/05 11:19:51;;;;;;;;;34.33;32.67;;;;;7.16;79.49;99527.75;5015477;28;46522;-77
2022/12/05 11:22:17;;;;;;;;;43.33;35.00;;;;;7.19;80.07;99524.19;5014675;28;45408;-77
2022/12/05 11:24:42;;;;;;;;;31.33;27.00;;;;;7.22;80.05;99519.72;5015028;28;45435;-77
2022/12/05 11:27:14;;;;;;;;;46.00;33.33;;;;;7.26;79.98;99525.78;5009405;28;45581;-77
2022/12/05 11:29:40;;;;;;;;;27.67;26.67;;;;;7.30;79.84;99524.84;5015572;28;46546;-77
2022/12/05 11:32:17;;;;;;;;;27.33;27.33;;;;;7.34;79.76;99510.78;5015367;28;45406;-77
2022/12/05 11:34:52;;;;;;;;;33.00;30.00;;;;;7.39;79.44;99524.63;5015378;28;45354;-77
2022/12/05 11:37:30;;;;;;;;;31.67;26.33;;;;;7.44;79.27;99524.53;5015032;28;45752;-77
2022/12/05 11:39:56;;;;;;;;;34.00;31.67;;;;;7.48;78.80;99523.59;5014721;28;46302;-77
2022/12/05 11:42:43;;;;;;;;;35.67;32.33;;;;;7.52;78.88;99523.50;5012485;28;45460;-77
2022/12/05 11:45:28;;;;;;;;;35.33;31.33;;;;;7.56;79.22;99521.66;5014403;28;45487;-77
2022/12/05 11:48:12;;;;;;;;;31.00;28.00;;;;;7.59;78.87;99508.47;5014971;28;45579;-77
2022/12/05 11:51:10;;;;;;;;;28.67;25.67;;;;;7.61;78.80;99507.53;5007437;28;46482;-77